sensor_id;sensor_type;location;lat;lon;timestamp;pressure;altitude;pressure_sealevel;temperature;humidity
31538;BME280;18147;51.952;6.146;2023-07-20T00:00:15;101296.81;;;19.22;100.00
31538;BME280;18147;51.952;6.146;2023-07-20T00:02:44;101294.25;;;19.11;100.00
31538;BME280;18147;51.952;6.146;2023-07-20T00:05:13;101295.84;;;19.13;100.00
31538;BME280;18147;51.952;6.146;2023-07-20T00:07:39;101295.41;;;19.08;100.00
31538;BME280;18147;51.952;6.146;2023-07-20T00:10:13;101299.38;;;19.04;100.00
31538;BME280;18147;51.952;6.146;2023-07-20T00:12:38;101295.94;;;19.02;100.00
31538;BME280;18147;51.952;6.146;2023-07-20T00:15:08;101294.78;;;18.85;100.00
31538;BME280;18147;51.952;6.146;2023-07-20T00:17:34;101298.50;;;18.94;100.00
31538;BME280;18147;51.952;6.146;2023-07-20T00:20:02;101304.34;;;18.89;100.00
31538;BME280;18147;51.952;6.146;2023-07-20T00:22:33;101299.75;;;18.71;100.00
31538;BME280;18147;51.952;6.146;2023-07-20T00:25:06;101296.84;;;18.53;100.00
31538;BME280;18147;51.952;6.146;2023-07-20T00:27:32;101301.78;;;18.57;100.00
31538;BME280;18147;51.952;6.146;2023-07-20T00:29:58;101292.09;;;18.45;100.00
31538;BME280;18147;51.952;6.146;2023-07-20T00:32:23;101302.06;;;18.45;100.00
31538;BME280;18147;51.952;6.146;2023-07-20T00:34:49;101293.06;;;18.34;100.00
31538;BME280;18147;51.952;6.146;2023-07-20T00:37:15;101302.53;;;18.19;100.00
31538;BME280;18147;51.952;6.146;2023-07-20T00:39:50;101297.97;;;18.20;100.00
31538;BME280;18147;51.952;6.146;2023-07-20T00:42:17;101296.69;;;18.14;100.00
31538;BME280;18147;51.952;6.146;2023-07-20T00:44:44;101297.97;;;18.20;100.00
31538;BME280;18147;51.952;6.146;2023-07-20T00:47:14;101298.56;;;18.23;100.00
31538;BME280;18147;51.952;6.146;2023-07-20T00:49:45;101297.56;;;18.24;100.00
31538;BME280;18147;51.952;6.146;2023-07-20T00:52:13;101295.88;;;18.23;100.00
31538;BME280;18147;51.952;6.146;2023-07-20T00:54:44;101301.66;;;18.19;100.00
31538;BME280;18147;51.952;6.146;2023-07-20T00:57:15;101298.13;;;18.18;100.00
31538;BME280;18147;51.952;6.146;2023-07-20T00:59:46;101294.53;;;18.08;100.00
31538;BME280;18147;51.952;6.146;2023-07-20T01:02:15;101298.63;;;18.02;100.00
31538;BME280;18147;51.952;6.146;2023-07-20T01:04:44;101294.78;;;18.05;100.00
31538;BME280;18147;51.952;6.146;2023-07-20T01:07:28;101312.13;;;18.02;100.00
31538;BME280;18147;51.952;6.146;2023-07-20T01:12:48;101303.69;;;17.96;100.00
31538;BME280;18147;51.952;6.146;2023-07-20T01:15:16;101312.38;;;17.99;100.00
31538;BME280;18147;51.952;6.146;2023-07-20T01:17:44;101302.06;;;17.83;100.00
31538;BME280;18147;51.952;6.146;2023-07-20T01:20:22;101314.00;;;17.91;100.00
31538;BME280;18147;51.952;6.146;2023-07-20T01:29:27;101307.13;;;17.98;100.00
31538;BME280;18147;51.952;6.146;2023-07-20T01:32:02;101320.78;;;18.06;100.00
31538;BME280;18147;51.952;6.146;2023-07-20T01:34:31;101310.66;;;17.98;100.00
31538;BME280;18147;51.952;6.146;2023-07-20T01:36:58;101320.53;;;18.09;100.00
31538;BME280;18147;51.952;6.146;2023-07-20T01:39:26;101319.38;;;18.11;100.00
31538;BME280;18147;51.952;6.146;2023-07-20T01:41:52;101326.44;;;17.82;100.00
31538;BME280;18147;51.952;6.146;2023-07-20T01:44:18;101322.72;;;17.94;100.00
31538;BME280;18147;51.952;6.146;2023-07-20T01:46:44;101328.19;;;17.72;100.00
31538;BME280;18147;51.952;6.146;2023-07-20T01:49:17;101320.94;;;17.51;100.00
31538;BME280;18147;51.952;6.146;2023-07-20T01:51:46;101332.13;;;17.47;100.00
31538;BME280;18147;51.952;6.146;2023-07-20T01:54:15;101330.88;;;17.51;100.00
31538;BME280;18147;51.952;6.146;2023-07-20T01:56:44;101333.88;;;17.37;100.00
31538;BME280;18147;51.952;6.146;2023-07-20T01:59:13;101333.56;;;17.30;100.00
31538;BME280;18147;51.952;6.146;2023-07-20T02:01:45;101331.84;;;17.29;100.00
31538;BME280;18147;51.952;6.146;2023-07-20T02:04:16;101327.56;;;17.26;100.00
31538;BME280;18147;51.952;6.146;2023-07-20T02:06:43;101326.22;;;17.32;100.00
31538;BME280;18147;51.952;6.146;2023-07-20T02:09:13;101328.69;;;17.24;100.00
31538;BME280;18147;51.952;6.146;2023-07-20T02:11:47;101328.69;;;17.24;100.00
31538;BME280;18147;51.952;6.146;2023-07-20T02:14:13;101326.69;;;17.26;100.00
31538;BME280;18147;51.952;6.146;2023-07-20T02:16:38;101329.16;;;17.29;100.00
31538;BME280;18147;51.952;6.146;2023-07-20T02:19:08;101334.22;;;17.22;100.00
31538;BME280;18147;51.952;6.146;2023-07-20T02:21:33;101335.00;;;17.02;100.00
31538;BME280;18147;51.952;6.146;2023-07-20T02:24:02;101330.34;;;17.04;100.00
31538;BME280;18147;51.952;6.146;2023-07-20T02:26:28;101329.16;;;16.97;100.00
31538;BME280;18147;51.952;6.146;2023-07-20T02:28:56;101332.59;;;16.88;100.00
31538;BME280;18147;51.952;6.146;2023-07-20T02:31:21;101332.69;;;16.86;100.00
31538;BME280;18147;51.952;6.146;2023-07-20T02:33:47;101337.13;;;16.76;100.00
31538;BME280;18147;51.952;6.146;2023-07-20T02:36:13;101331.72;;;16.65;100.00
31538;BME280;18147;51.952;6.146;2023-07-20T02:38:38;101330.75;;;16.66;100.00
31538;BME280;18147;51.952;6.146;2023-07-20T02:41:04;101330.19;;;16.73;100.00
31538;BME280;18147;51.952;6.146;2023-07-20T02:43:29;101336.63;;;16.71;100.00
31538;BME280;18147;51.952;6.146;2023-07-20T02:45:58;101333.59;;;16.75;100.00
31538;BME280;18147;51.952;6.146;2023-07-20T02:48:24;101337.50;;;16.71;100.00
31538;BME280;18147;51.952;6.146;2023-07-20T02:50:52;101337.50;;;16.82;100.00
31538;BME280;18147;51.952;6.146;2023-07-20T02:53:18;101337.38;;;16.84;100.00
31538;BME280;18147;51.952;6.146;2023-07-20T02:55:43;101341.91;;;16.83;100.00
31538;BME280;18147;51.952;6.146;2023-07-20T02:58:09;101343.00;;;16.81;100.00
31538;BME280;18147;51.952;6.146;2023-07-20T03:00:35;101334.56;;;16.74;100.00
31538;BME280;18147;51.952;6.146;2023-07-20T03:03:03;101345.94;;;16.67;100.00
31538;BME280;18147;51.952;6.146;2023-07-20T03:05:29;101353.03;;;16.68;100.00
31538;BME280;18147;51.952;6.146;2023-07-20T03:07:55;101350.72;;;16.63;100.00
31538;BME280;18147;51.952;6.146;2023-07-20T03:10:21;101358.19;;;16.60;100.00
31538;BME280;18147;51.952;6.146;2023-07-20T03:12:47;101360.25;;;16.56;100.00
31538;BME280;18147;51.952;6.146;2023-07-20T03:15:15;101364.66;;;16.46;100.00
31538;BME280;18147;51.952;6.146;2023-07-20T03:17:44;101366.00;;;16.40;100.00
31538;BME280;18147;51.952;6.146;2023-07-20T03:20:21;101370.31;;;16.31;100.00
31538;BME280;18147;51.952;6.146;2023-07-20T03:22:46;101373.38;;;16.27;100.00
31538;BME280;18147;51.952;6.146;2023-07-20T03:25:15;101366.38;;;16.24;100.00
31538;BME280;18147;51.952;6.146;2023-07-20T03:27:44;101368.94;;;16.26;100.00
31538;BME280;18147;51.952;6.146;2023-07-20T03:30:15;101370.03;;;16.23;100.00
31538;BME280;18147;51.952;6.146;2023-07-20T03:32:43;101388.97;;;16.11;100.00
31538;BME280;18147;51.952;6.146;2023-07-20T03:35:09;101378.47;;;16.08;100.00
31538;BME280;18147;51.952;6.146;2023-07-20T03:37:45;101379.06;;;16.00;100.00
31538;BME280;18147;51.952;6.146;2023-07-20T03:40:17;101378.47;;;16.08;100.00
31538;BME280;18147;51.952;6.146;2023-07-20T03:42:46;101376.16;;;16.14;100.00
31538;BME280;18147;51.952;6.146;2023-07-20T03:45:15;101378.59;;;16.17;100.00
31538;BME280;18147;51.952;6.146;2023-07-20T03:47:46;101374.81;;;16.20;100.00
31538;BME280;18147;51.952;6.146;2023-07-20T03:50:16;101369.91;;;16.25;100.00
31538;BME280;18147;51.952;6.146;2023-07-20T03:52:44;101381.53;;;16.25;100.00
31538;BME280;18147;51.952;6.146;2023-07-20T03:55:17;101372.03;;;16.33;100.00
31538;BME280;18147;51.952;6.146;2023-07-20T03:57:49;101375.06;;;16.62;100.00
31538;BME280;18147;51.952;6.146;2023-07-20T04:00:17;101374.00;;;17.30;100.00
31538;BME280;18147;51.952;6.146;2023-07-20T04:02:43;101370.28;;;17.95;100.00
31538;BME280;18147;51.952;6.146;2023-07-20T04:05:08;101362.78;;;18.50;100.00
31538;BME280;18147;51.952;6.146;2023-07-20T04:07:34;101359.53;;;18.97;100.00
31538;BME280;18147;51.952;6.146;2023-07-20T04:10:00;101363.84;;;19.57;100.00
31538;BME280;18147;51.952;6.146;2023-07-20T04:12:25;101368.38;;;20.15;95.07
31538;BME280;18147;51.952;6.146;2023-07-20T04:14:51;101361.06;;;20.72;91.01
31538;BME280;18147;51.952;6.146;2023-07-20T04:17:17;101355.03;;;21.24;86.34
31538;BME280;18147;51.952;6.146;2023-07-20T04:19:43;101361.72;;;21.65;81.37
31538;BME280;18147;51.952;6.146;2023-07-20T04:22:15;101356.81;;;21.86;77.50
31538;BME280;18147;51.952;6.146;2023-07-20T04:24:44;101358.97;;;22.27;76.34
31538;BME280;18147;51.952;6.146;2023-07-20T04:27:13;101354.88;;;22.57;74.05
31538;BME280;18147;51.952;6.146;2023-07-20T04:29:43;101365.50;;;22.76;71.50
31538;BME280;18147;51.952;6.146;2023-07-20T04:32:08;101365.63;;;23.09;70.33
31538;BME280;18147;51.952;6.146;2023-07-20T04:34:36;101372.19;;;23.40;68.26
31538;BME280;18147;51.952;6.146;2023-07-20T04:37:05;101367.97;;;23.87;66.29
31538;BME280;18147;51.952;6.146;2023-07-20T04:39:31;101362.47;;;24.27;64.75
31538;BME280;18147;51.952;6.146;2023-07-20T04:41:58;101363.56;;;24.66;63.23
31538;BME280;18147;51.952;6.146;2023-07-20T04:44:27;101362.22;;;25.32;61.13
31538;BME280;18147;51.952;6.146;2023-07-20T04:46:52;101356.38;;;25.58;60.07
31538;BME280;18147;51.952;6.146;2023-07-20T04:49:18;101364.78;;;25.79;59.49
31538;BME280;18147;51.952;6.146;2023-07-20T04:51:45;101365.25;;;26.21;58.22
31538;BME280;18147;51.952;6.146;2023-07-20T04:54:16;101356.47;;;26.40;57.70
31538;BME280;18147;51.952;6.146;2023-07-20T04:56:44;101367.69;;;25.78;59.24
31538;BME280;18147;51.952;6.146;2023-07-20T04:59:20;101371.31;;;25.24;60.40
31538;BME280;18147;51.952;6.146;2023-07-20T05:01:45;101369.78;;;25.45;60.15
31538;BME280;18147;51.952;6.146;2023-07-20T05:04:14;101376.38;;;25.36;59.18
31538;BME280;18147;51.952;6.146;2023-07-20T05:06:45;101380.69;;;24.35;62.18
31538;BME280;18147;51.952;6.146;2023-07-20T05:09:20;101374.78;;;23.66;64.67
31538;BME280;18147;51.952;6.146;2023-07-20T05:11:46;101380.41;;;23.73;65.86
31538;BME280;18147;51.952;6.146;2023-07-20T05:14:14;101380.59;;;23.71;65.96
31538;BME280;18147;51.952;6.146;2023-07-20T05:16:43;101381.97;;;23.09;66.67
31538;BME280;18147;51.952;6.146;2023-07-20T05:19:09;101381.97;;;23.00;68.00
31538;BME280;18147;51.952;6.146;2023-07-20T05:21:34;101383.78;;;22.92;68.25
31538;BME280;18147;51.952;6.146;2023-07-20T05:24:03;101390.94;;;22.33;70.70
31538;BME280;18147;51.952;6.146;2023-07-20T05:26:28;101389.94;;;21.72;74.55
31538;BME280;18147;51.952;6.146;2023-07-20T05:28:55;101388.41;;;21.34;76.97
31538;BME280;18147;51.952;6.146;2023-07-20T05:31:21;101388.56;;;21.50;76.80
31538;BME280;18147;51.952;6.146;2023-07-20T05:33:46;101388.31;;;22.23;73.78
31538;BME280;18147;51.952;6.146;2023-07-20T05:36:15;101393.72;;;22.15;73.35
31538;BME280;18147;51.952;6.146;2023-07-20T05:38:44;101401.34;;;22.11;73.39
31538;BME280;18147;51.952;6.146;2023-07-20T05:41:17;101407.69;;;22.02;73.89
31538;BME280;18147;51.952;6.146;2023-07-20T05:43:46;101402.88;;;22.14;76.17
31538;BME280;18147;51.952;6.146;2023-07-20T05:46:19;101407.13;;;23.03;71.62
31538;BME280;18147;51.952;6.146;2023-07-20T05:48:44;101406.78;;;23.72;67.85
31538;BME280;18147;51.952;6.146;2023-07-20T05:51:15;101402.00;;;24.07;65.40
31538;BME280;18147;51.952;6.146;2023-07-20T05:53:44;101404.56;;;24.17;62.71
31538;BME280;18147;51.952;6.146;2023-07-20T05:56:16;101410.88;;;24.01;62.24
31538;BME280;18147;51.952;6.146;2023-07-20T05:58:42;101411.72;;;23.93;62.80
31538;BME280;18147;51.952;6.146;2023-07-20T06:01:16;101409.69;;;24.03;62.68
31538;BME280;18147;51.952;6.146;2023-07-20T06:03:46;101411.25;;;23.90;62.39
31538;BME280;18147;51.952;6.146;2023-07-20T06:06:17;101409.66;;;24.28;61.16
31538;BME280;18147;51.952;6.146;2023-07-20T06:08:46;101411.38;;;23.64;64.18
31538;BME280;18147;51.952;6.146;2023-07-20T06:11:18;101415.47;;;23.84;64.11
31538;BME280;18147;51.952;6.146;2023-07-20T06:13:47;101419.53;;;22.71;65.92
31538;BME280;18147;51.952;6.146;2023-07-20T06:16:15;101420.88;;;22.67;65.94
31538;BME280;18147;51.952;6.146;2023-07-20T06:18:47;101414.97;;;23.06;65.77
31538;BME280;18147;51.952;6.146;2023-07-20T06:21:16;101418.31;;;22.91;65.95
31538;BME280;18147;51.952;6.146;2023-07-20T06:23:44;101424.31;;;24.02;63.50
31538;BME280;18147;51.952;6.146;2023-07-20T06:26:15;101426.53;;;23.83;60.94
31538;BME280;18147;51.952;6.146;2023-07-20T06:28:45;101427.38;;;24.24;60.67
31538;BME280;18147;51.952;6.146;2023-07-20T06:31:17;101428.41;;;24.31;59.55
31538;BME280;18147;51.952;6.146;2023-07-20T06:33:45;101435.22;;;24.11;58.13
31538;BME280;18147;51.952;6.146;2023-07-20T06:36:17;101427.91;;;24.11;58.68
31538;BME280;18147;51.952;6.146;2023-07-20T06:38:46;101426.84;;;23.55;60.48
31538;BME280;18147;51.952;6.146;2023-07-20T06:41:20;101425.94;;;23.30;60.37
31538;BME280;18147;51.952;6.146;2023-07-20T06:43:47;101422.53;;;22.60;63.23
31538;BME280;18147;51.952;6.146;2023-07-20T06:46:15;101424.69;;;23.16;59.95
31538;BME280;18147;51.952;6.146;2023-07-20T06:48:47;101424.78;;;22.38;61.57
31538;BME280;18147;51.952;6.146;2023-07-20T06:51:19;101421.13;;;22.82;62.38
31538;BME280;18147;51.952;6.146;2023-07-20T06:53:47;101423.97;;;23.06;64.36
31538;BME280;18147;51.952;6.146;2023-07-20T06:56:16;101435.38;;;22.06;63.14
31538;BME280;18147;51.952;6.146;2023-07-20T06:58:44;101430.06;;;22.74;63.34
31538;BME280;18147;51.952;6.146;2023-07-20T07:01:16;101425.09;;;22.61;61.98
31538;BME280;18147;51.952;6.146;2023-07-20T07:03:48;101425.09;;;21.56;65.20
31538;BME280;18147;51.952;6.146;2023-07-20T07:06:16;101432.69;;;21.70;64.82
31538;BME280;18147;51.952;6.146;2023-07-20T07:08:45;101439.66;;;21.72;66.55
31538;BME280;18147;51.952;6.146;2023-07-20T07:11:21;101437.19;;;21.79;67.61
31538;BME280;18147;51.952;6.146;2023-07-20T07:13:47;101447.38;;;22.65;64.82
31538;BME280;18147;51.952;6.146;2023-07-20T07:16:16;101441.84;;;22.83;63.08
31538;BME280;18147;51.952;6.146;2023-07-20T07:18:50;101443.88;;;23.07;58.13
31538;BME280;18147;51.952;6.146;2023-07-20T07:21:16;101449.22;;;23.33;58.09
31538;BME280;18147;51.952;6.146;2023-07-20T07:23:51;101443.94;;;22.89;55.49
31538;BME280;18147;51.952;6.146;2023-07-20T07:26:19;101451.28;;;22.18;59.35
31538;BME280;18147;51.952;6.146;2023-07-20T07:28:47;101455.25;;;22.06;57.09
31538;BME280;18147;51.952;6.146;2023-07-20T07:31:18;101456.81;;;21.73;59.52
31538;BME280;18147;51.952;6.146;2023-07-20T07:33:46;101456.34;;;21.60;59.87
31538;BME280;18147;51.952;6.146;2023-07-20T07:36:17;101457.97;;;21.53;62.44
31538;BME280;18147;51.952;6.146;2023-07-20T07:38:47;101461.56;;;21.89;63.90
31538;BME280;18147;51.952;6.146;2023-07-20T07:41:13;101458.34;;;21.93;63.04
31538;BME280;18147;51.952;6.146;2023-07-20T07:43:45;101467.00;;;21.43;61.62
31538;BME280;18147;51.952;6.146;2023-07-20T07:46:11;101458.72;;;22.60;61.47
31538;BME280;18147;51.952;6.146;2023-07-20T07:48:46;101472.81;;;22.12;63.24
31538;BME280;18147;51.952;6.146;2023-07-20T07:51:19;101468.38;;;22.55;59.31
31538;BME280;18147;51.952;6.146;2023-07-20T07:53:46;101472.78;;;23.08;57.50
31538;BME280;18147;51.952;6.146;2023-07-20T07:56:15;101466.88;;;22.86;61.98
31538;BME280;18147;51.952;6.146;2023-07-20T07:58:46;101471.72;;;23.00;61.73
31538;BME280;18147;51.952;6.146;2023-07-20T08:01:17;101470.84;;;23.42;56.86
31538;BME280;18147;51.952;6.146;2023-07-20T08:03:47;101459.75;;;24.11;56.42
31538;BME280;18147;51.952;6.146;2023-07-20T08:06:15;101464.16;;;24.28;55.15
31538;BME280;18147;51.952;6.146;2023-07-20T08:08:44;101462.38;;;23.53;56.54
31538;BME280;18147;51.952;6.146;2023-07-20T08:11:16;101461.81;;;24.17;56.65
31538;BME280;18147;51.952;6.146;2023-07-20T08:13:43;101467.50;;;23.57;58.95
31538;BME280;18147;51.952;6.146;2023-07-20T08:16:09;101463.50;;;24.01;56.58
31538;BME280;18147;51.952;6.146;2023-07-20T08:18:45;101458.03;;;23.93;55.81
31538;BME280;18147;51.952;6.146;2023-07-20T08:21:20;101463.50;;;23.85;55.03
31538;BME280;18147;51.952;6.146;2023-07-20T08:23:45;101472.53;;;24.43;53.64
31538;BME280;18147;51.952;6.146;2023-07-20T08:26:15;101470.81;;;24.09;54.72
31538;BME280;18147;51.952;6.146;2023-07-20T08:28:46;101474.75;;;24.07;55.17
31538;BME280;18147;51.952;6.146;2023-07-20T08:31:16;101470.66;;;24.27;55.77
31538;BME280;18147;51.952;6.146;2023-07-20T08:33:45;101464.91;;;24.94;51.05
31538;BME280;18147;51.952;6.146;2023-07-20T08:36:19;101469.59;;;23.79;53.94
31538;BME280;18147;51.952;6.146;2023-07-20T08:38:45;101470.81;;;24.09;52.95
31538;BME280;18147;51.952;6.146;2023-07-20T08:41:15;101469.94;;;23.68;53.65
31538;BME280;18147;51.952;6.146;2023-07-20T08:43:48;101476.59;;;23.82;56.03
31538;BME280;18147;51.952;6.146;2023-07-20T08:46:18;101475.75;;;23.89;55.35
31538;BME280;18147;51.952;6.146;2023-07-20T08:48:47;101475.59;;;23.32;53.88
31538;BME280;18147;51.952;6.146;2023-07-20T08:51:19;101474.91;;;24.62;54.79
31538;BME280;18147;51.952;6.146;2023-07-20T08:53:47;101487.00;;;24.27;53.71
31538;BME280;18147;51.952;6.146;2023-07-20T08:56:22;101480.06;;;24.41;56.28
31538;BME280;18147;51.952;6.146;2023-07-20T08:58:49;101478.81;;;24.68;55.32
31538;BME280;18147;51.952;6.146;2023-07-20T09:01:22;101482.31;;;24.85;52.75
31538;BME280;18147;51.952;6.146;2023-07-20T09:03:48;101473.66;;;25.28;51.36
31538;BME280;18147;51.952;6.146;2023-07-20T09:06:17;101471.13;;;25.27;48.36
31538;BME280;18147;51.952;6.146;2023-07-20T09:08:46;101478.53;;;25.02;52.10
31538;BME280;18147;51.952;6.146;2023-07-20T09:11:15;101478.31;;;24.32;52.05
31538;BME280;18147;51.952;6.146;2023-07-20T09:13:42;101468.97;;;24.50;54.52
31538;BME280;18147;51.952;6.146;2023-07-20T09:16:17;101459.06;;;25.44;50.05
31538;BME280;18147;51.952;6.146;2023-07-20T09:18:46;101472.53;;;24.51;49.86
31538;BME280;18147;51.952;6.146;2023-07-20T09:21:18;101454.81;;;25.11;50.46
31538;BME280;18147;51.952;6.146;2023-07-20T09:23:44;101465.06;;;25.00;49.50
31538;BME280;18147;51.952;6.146;2023-07-20T09:26:16;101468.41;;;24.71;53.18
31538;BME280;18147;51.952;6.146;2023-07-20T09:28:50;101466.41;;;25.13;50.57
31538;BME280;18147;51.952;6.146;2023-07-20T09:31:21;101476.06;;;24.60;49.80
31538;BME280;18147;51.952;6.146;2023-07-20T09:33:48;101472.72;;;24.00;50.64
31538;BME280;18147;51.952;6.146;2023-07-20T09:36:19;101463.16;;;23.80;50.34
31538;BME280;18147;51.952;6.146;2023-07-20T09:38:47;101470.66;;;24.02;51.82
31538;BME280;18147;51.952;6.146;2023-07-20T09:41:17;101465.72;;;23.98;51.69
31538;BME280;18147;51.952;6.146;2023-07-20T09:43:46;101463.16;;;23.88;52.70
31538;BME280;18147;51.952;6.146;2023-07-20T09:46:15;101456.34;;;24.25;51.38
31538;BME280;18147;51.952;6.146;2023-07-20T09:48:54;101462.97;;;24.22;49.53
31538;BME280;18147;51.952;6.146;2023-07-20T09:51:23;101462.66;;;24.50;50.33
31538;BME280;18147;51.952;6.146;2023-07-20T09:53:52;101452.63;;;25.37;50.16
31538;BME280;18147;51.952;6.146;2023-07-20T09:56:21;101457.88;;;24.99;50.24
31538;BME280;18147;51.952;6.146;2023-07-20T09:58:48;101461.72;;;24.74;48.49
31538;BME280;18147;51.952;6.146;2023-07-20T10:01:20;101450.41;;;25.01;50.14
31538;BME280;18147;51.952;6.146;2023-07-20T10:03:47;101445.94;;;25.71;47.82
31538;BME280;18147;51.952;6.146;2023-07-20T10:06:19;101443.59;;;26.28;45.50
31538;BME280;18147;51.952;6.146;2023-07-20T10:08:47;101435.13;;;26.76;45.76
31538;BME280;18147;51.952;6.146;2023-07-20T10:11:17;101437.78;;;26.31;46.92
31538;BME280;18147;51.952;6.146;2023-07-20T10:13:48;101436.44;;;26.27;47.49
31538;BME280;18147;51.952;6.146;2023-07-20T10:16:22;101447.25;;;24.73;46.16
31538;BME280;18147;51.952;6.146;2023-07-20T10:19:05;101439.19;;;24.88;48.26
31538;BME280;18147;51.952;6.146;2023-07-20T10:21:34;101434.69;;;25.43;47.97
31538;BME280;18147;51.952;6.146;2023-07-20T10:24:01;101445.47;;;24.97;49.13
31538;BME280;18147;51.952;6.146;2023-07-20T10:26:44;101442.72;;;23.92;49.39
31538;BME280;18147;51.952;6.146;2023-07-20T10:29:19;101448.00;;;23.86;50.98
31538;BME280;18147;51.952;6.146;2023-07-20T10:31:46;101450.38;;;24.13;51.25
31538;BME280;18147;51.952;6.146;2023-07-20T10:34:18;101441.50;;;24.52;51.60
31538;BME280;18147;51.952;6.146;2023-07-20T10:36:46;101441.19;;;24.94;48.74
31538;BME280;18147;51.952;6.146;2023-07-20T10:39:31;101436.56;;;25.11;48.57
31538;BME280;18147;51.952;6.146;2023-07-20T10:42:03;101428.84;;;25.15;47.77
31538;BME280;18147;51.952;6.146;2023-07-20T10:44:29;101430.06;;;25.12;48.13
31538;BME280;18147;51.952;6.146;2023-07-20T10:47:03;101425.56;;;25.27;49.47
31538;BME280;18147;51.952;6.146;2023-07-20T10:49:33;101428.19;;;25.44;47.65
31538;BME280;18147;51.952;6.146;2023-07-20T10:52:05;101423.63;;;25.59;46.76
31538;BME280;18147;51.952;6.146;2023-07-20T10:57:29;101422.22;;;24.62;48.14
31538;BME280;18147;51.952;6.146;2023-07-20T11:00:18;101411.88;;;25.36;47.14
31538;BME280;18147;51.952;6.146;2023-07-20T11:02:48;101420.69;;;25.46;47.57
31538;BME280;18147;51.952;6.146;2023-07-20T11:05:34;101417.94;;;25.69;46.28
31538;BME280;18147;51.952;6.146;2023-07-20T11:08:03;101419.16;;;25.66;47.53
31538;BME280;18147;51.952;6.146;2023-07-20T11:13:58;101420.41;;;24.46;48.18
31538;BME280;18147;51.952;6.146;2023-07-20T11:16:41;101411.19;;;24.94;48.41
31538;BME280;18147;51.952;6.146;2023-07-20T11:19:24;101419.84;;;25.06;48.95
31538;BME280;18147;51.952;6.146;2023-07-20T11:21:54;101417.16;;;24.10;50.76
31538;BME280;18147;51.952;6.146;2023-07-20T11:24:21;101420.03;;;24.33;49.44
31538;BME280;18147;51.952;6.146;2023-07-20T11:26:48;101416.06;;;24.60;51.36
31538;BME280;18147;51.952;6.146;2023-07-20T11:29:19;101402.34;;;24.84;49.31
31538;BME280;18147;51.952;6.146;2023-07-20T11:31:46;101407.22;;;25.67;48.76
31538;BME280;18147;51.952;6.146;2023-07-20T11:34:17;101392.66;;;26.13;47.06
31538;BME280;18147;51.952;6.146;2023-07-20T11:36:49;101397.72;;;26.53;44.44
31538;BME280;18147;51.952;6.146;2023-07-20T11:39:19;101387.06;;;26.73;46.91
31538;BME280;18147;51.952;6.146;2023-07-20T11:41:49;101390.97;;;27.00;47.62
31538;BME280;18147;51.952;6.146;2023-07-20T11:44:16;101381.53;;;26.14;45.63
31538;BME280;18147;51.952;6.146;2023-07-20T11:46:44;101383.28;;;25.46;45.52
31538;BME280;18147;51.952;6.146;2023-07-20T11:49:19;101383.22;;;26.15;45.87
31538;BME280;18147;51.952;6.146;2023-07-20T11:51:47;101382.84;;;26.03;45.54
31538;BME280;18147;51.952;6.146;2023-07-20T11:54:16;101371.22;;;26.54;44.41
31538;BME280;18147;51.952;6.146;2023-07-20T11:56:45;101375.72;;;26.17;44.45
31538;BME280;18147;51.952;6.146;2023-07-20T11:59:18;101381.53;;;26.14;44.86
31538;BME280;18147;51.952;6.146;2023-07-20T12:01:44;101379.34;;;26.09;45.34
31538;BME280;18147;51.952;6.146;2023-07-20T12:04:16;101368.44;;;24.78;46.95
31538;BME280;18147;51.952;6.146;2023-07-20T12:06:45;101370.84;;;25.67;45.87
31538;BME280;18147;51.952;6.146;2023-07-20T12:09:17;101365.69;;;25.72;44.63
31538;BME280;18147;51.952;6.146;2023-07-20T12:11:49;101365.69;;;26.09;44.79
31538;BME280;18147;51.952;6.146;2023-07-20T12:14:18;101365.66;;;25.95;44.75
31538;BME280;18147;51.952;6.146;2023-07-20T12:16:44;101363.84;;;25.64;45.19
31538;BME280;18147;51.952;6.146;2023-07-20T12:19:17;101369.44;;;25.48;45.86
31538;BME280;18147;51.952;6.146;2023-07-20T12:21:46;101370.09;;;25.27;46.91
31538;BME280;18147;51.952;6.146;2023-07-20T12:24:17;101375.00;;;25.00;46.91
31538;BME280;18147;51.952;6.146;2023-07-20T12:26:46;101376.75;;;24.93;46.67
31538;BME280;18147;51.952;6.146;2023-07-20T12:29:18;101383.59;;;24.50;48.53
31538;BME280;18147;51.952;6.146;2023-07-20T12:31:46;101377.97;;;24.27;48.55
31538;BME280;18147;51.952;6.146;2023-07-20T12:34:15;101371.53;;;24.20;48.26
31538;BME280;18147;51.952;6.146;2023-07-20T12:36:43;101375.91;;;24.29;49.56
31538;BME280;18147;51.952;6.146;2023-07-20T12:39:14;101373.00;;;24.55;49.09
31538;BME280;18147;51.952;6.146;2023-07-20T12:41:45;101368.88;;;24.59;49.23
31538;BME280;18147;51.952;6.146;2023-07-20T12:44:17;101361.69;;;24.66;47.97
31538;BME280;18147;51.952;6.146;2023-07-20T12:46:46;101367.50;;;24.94;48.74
31538;BME280;18147;51.952;6.146;2023-07-20T12:49:16;101363.22;;;25.08;47.85
31538;BME280;18147;51.952;6.146;2023-07-20T12:51:48;101362.25;;;25.24;48.61
31538;BME280;18147;51.952;6.146;2023-07-20T12:54:17;101360.91;;;25.20;48.46
31538;BME280;18147;51.952;6.146;2023-07-20T12:56:44;101361.59;;;25.22;49.27
31538;BME280;18147;51.952;6.146;2023-07-20T12:59:10;101366.50;;;24.95;48.08
31538;BME280;18147;51.952;6.146;2023-07-20T13:01:48;101362.28;;;24.85;48.18
31538;BME280;18147;51.952;6.146;2023-07-20T13:04:13;101352.81;;;25.03;49.41
31538;BME280;18147;51.952;6.146;2023-07-20T13:06:45;101356.38;;;25.04;49.41
31538;BME280;18147;51.952;6.146;2023-07-20T13:09:17;101362.13;;;24.86;48.24
31538;BME280;18147;51.952;6.146;2023-07-20T13:11:46;101361.84;;;24.73;48.22
31538;BME280;18147;51.952;6.146;2023-07-20T13:14:18;101346.38;;;24.96;48.69